Time;durP1;ratioP1;P1;durP2;ratioP2;P2;SDS_P1;SDS_P2;PMS_P1;PMS_P2;Temp;Humidity;BMP_temperature;BMP_pressure;BME280_temperature;BME280_humidity;BME280_pressure;Samples;Min_cycle;Max_cycle;Signal;HPM_P1;HPM_P2
2024/02/23 00:01:37;;;;;;;3.60;1.35;;;;;;;;;;5042564;28;20056;-73
2024/02/23 00:04:07;;;;;;;6.75;1.50;;;;;;;;;;5043071;28;20112;-74
2024/02/23 00:06:38;;;;;;;3.35;1.52;;;;;;;;;;5043303;28;20059;-73
2024/02/23 00:09:10;;;;;;;3.08;1.38;;;;;;;;;;5041032;28;20057;-74
2024/02/23 00:11:44;;;;;;;4.70;1.40;;;;;;;;;;5043005;28;20193;-73
2024/02/23 00:14:20;;;;;;;3.72;2.10;;;;;;;;;;5042283;28;20404;-74
2024/02/23 00:16:51;;;;;;;7.10;2.67;;;;;;;;;;5042849;28;20060;-72
2024/02/23 00:19:23;;;;;;;7.53;3.28;;;;;;;;;;5042627;28;20045;-82
2024/02/23 00:21:54;;;;;;;6.22;3.25;;;;;;;;;;5042799;28;20051;-73
2024/02/23 00:24:28;;;;;;;8.43;2.55;;;;;;;;;;5042331;28;20765;-73
2024/02/23 00:26:58;;;;;;;3.47;1.98;;;;;;;;;;5042659;28;20036;-72
2024/02/23 00:29:29;;;;;;;2.60;1.80;;;;;;;;;;5043717;28;20052;-74
2024/02/23 00:32:00;;;;;;;3.53;1.90;;;;;;;;;;5043653;28;20048;-73
2024/02/23 00:34:31;;;;;;;8.93;2.60;;;;;;;;;;5042076;28;20053;-74
2024/02/23 00:37:03;;;;;;;3.53;1.80;;;;;;;;;;5041802;28;20107;-74
2024/02/23 00:39:36;;;;;;;6.25;1.60;;;;;;;;;;5041859;28;20051;-74
2024/02/23 00:42:07;;;;;;;4.93;1.60;;;;;;;;;;5042711;28;20049;-74
2024/02/23 00:44:38;;;;;;;5.22;1.85;;;;;;;;;;5042108;28;20056;-73
2024/02/23 00:47:09;;;;;;;2.80;1.70;;;;;;;;;;5042312;28;20041;-73
2024/02/23 00:49:40;;;;;;;4.80;1.73;;;;;;;;;;5042008;28;20526;-73
2024/02/23 00:52:11;;;;;;;4.30;1.70;;;;;;;;;;5041855;28;20419;-74
2024/02/23 00:54:42;;;;;;;4.95;1.58;;;;;;;;;;5042443;28;20059;-73
2024/02/23 00:57:11;;;;;;;7.25;1.83;;;;;;;;;;5041457;28;20605;-73
2024/02/23 00:59:43;;;;;;;2.33;1.63;;;;;;;;;;5041586;28;20534;-73
2024/02/23 01:02:13;;;;;;;9.38;2.25;;;;;;;;;;5041376;28;20504;-73
2024/02/23 01:04:44;;;;;;;11.88;2.05;;;;;;;;;;5042333;28;20057;-73
2024/02/23 01:07:14;;;;;;;2.25;1.63;;;;;;;;;;5042085;28;20048;-74
2024/02/23 01:09:47;;;;;;;7.13;1.75;;;;;;;;;;5041968;28;20057;-74
2024/02/23 01:12:18;;;;;;;5.57;1.83;;;;;;;;;;5025327;28;20491;-74
2024/02/23 01:14:48;;;;;;;2.72;1.63;;;;;;;;;;5041994;28;20045;-73
2024/02/23 01:17:19;;;;;;;2.55;1.70;;;;;;;;;;5042755;28;20048;-73
2024/02/23 01:19:50;;;;;;;4.15;1.75;;;;;;;;;;5042688;28;20045;-74
2024/02/23 01:22:22;;;;;;;6.68;1.70;;;;;;;;;;5042079;28;20053;-73
2024/02/23 01:24:53;;;;;;;12.63;2.30;;;;;;;;;;5041629;28;20052;-73
2024/02/23 01:27:24;;;;;;;3.10;1.42;;;;;;;;;;5040833;28;20057;-73
2024/02/23 01:29:54;;;;;;;4.88;1.75;;;;;;;;;;5041360;28;20049;-73
2024/02/23 01:32:24;;;;;;;3.75;1.45;;;;;;;;;;5041797;28;20049;-73
2024/02/23 01:34:57;;;;;;;4.50;1.50;;;;;;;;;;5042213;28;20503;-73
2024/02/23 01:37:28;;;;;;;5.05;1.50;;;;;;;;;;5041619;28;20519;-74
2024/02/23 01:39:59;;;;;;;4.53;1.40;;;;;;;;;;5041462;28;20522;-73
2024/02/23 01:42:29;;;;;;;4.20;1.70;;;;;;;;;;5041887;28;20083;-74
2024/02/23 01:45:01;;;;;;;5.30;1.77;;;;;;;;;;5041996;28;20052;-73
2024/02/23 01:47:33;;;;;;;3.28;1.52;;;;;;;;;;5042378;28;20048;-73
2024/02/23 01:50:03;;;;;;;4.93;1.65;;;;;;;;;;5041383;28;20517;-73
2024/02/23 01:52:35;;;;;;;3.22;1.77;;;;;;;;;;5040915;28;20060;-73
2024/02/23 01:55:06;;;;;;;6.82;1.77;;;;;;;;;;5041940;28;20610;-73
2024/02/23 01:57:37;;;;;;;2.70;1.50;;;;;;;;;;5040635;28;20512;-73
2024/02/23 02:00:20;;;;;;;8.38;1.40;;;;;;;;;;5042198;28;20044;-73
2024/02/23 02:02:55;;;;;;;2.50;1.40;;;;;;;;;;5041259;28;20060;-74
2024/02/23 02:05:26;;;;;;;2.55;1.50;;;;;;;;;;5042197;28;20499;-73
2024/02/23 02:08:01;;;;;;;3.55;2.05;;;;;;;;;;5041681;28;20056;-73
2024/02/23 02:10:32;;;;;;;4.03;1.30;;;;;;;;;;5041669;28;20056;-74
2024/02/23 02:13:06;;;;;;;3.90;1.63;;;;;;;;;;5040548;28;20053;-74
2024/02/23 02:15:37;;;;;;;4.93;1.67;;;;;;;;;;5042153;28;20071;-73
2024/02/23 02:18:12;;;;;;;4.63;1.70;;;;;;;;;;5043654;28;20056;-73
2024/02/23 02:20:54;;;;;;;6.35;1.85;;;;;;;;;;5045871;28;20527;-74
2024/02/23 02:23:28;;;;;;;10.00;1.83;;;;;;;;;;5044610;28;20586;-74
2024/02/23 02:26:00;;;;;;;5.32;1.77;;;;;;;;;;5044504;28;20056;-73
2024/02/23 02:28:34;;;;;;;5.80;2.03;;;;;;;;;;5045602;28;20053;-73
2024/02/23 02:31:20;;;;;;;11.35;2.20;;;;;;;;;;5042997;28;20053;-73
2024/02/23 02:33:54;;;;;;;4.75;1.70;;;;;;;;;;5048389;28;20049;-73
2024/02/23 02:36:25;;;;;;;4.90;1.58;;;;;;;;;;5044903;28;20693;-74
2024/02/23 02:38:56;;;;;;;6.95;1.90;;;;;;;;;;5045121;28;20056;-73
2024/02/23 02:41:30;;;;;;;6.47;2.00;;;;;;;;;;5045327;28;20049;-73
2024/02/23 02:44:09;;;;;;;3.53;1.63;;;;;;;;;;5045426;28;20056;-73
2024/02/23 02:47:01;;;;;;;10.02;2.10;;;;;;;;;;5043608;28;20053;-73
2024/02/23 02:49:33;;;;;;;9.98;2.25;;;;;;;;;;5044126;28;20439;-73
2024/02/23 02:52:04;;;;;;;6.03;1.73;;;;;;;;;;5044239;28;20044;-73
2024/02/23 02:54:35;;;;;;;8.98;1.88;;;;;;;;;;5044603;28;20037;-74
2024/02/23 02:57:06;;;;;;;7.32;2.03;;;;;;;;;;5044675;28;20045;-73
2024/02/23 02:59:38;;;;;;;7.05;2.00;;;;;;;;;;5043323;28;20064;-74
2024/02/23 03:02:08;;;;;;;5.97;2.38;;;;;;;;;;5044659;28;20404;-73
2024/02/23 03:04:46;;;;;;;3.17;2.10;;;;;;;;;;5044022;28;20053;-74
2024/02/23 03:07:19;;;;;;;5.32;2.17;;;;;;;;;;5044261;28;20045;-73
2024/02/23 03:09:53;;;;;;;4.53;2.45;;;;;;;;;;5044780;28;20479;-74
2024/02/23 03:12:23;;;;;;;6.22;2.60;;;;;;;;;;5044182;28;20049;-73
2024/02/23 03:14:53;;;;;;;4.82;2.17;;;;;;;;;;5044359;28;20048;-73
2024/02/23 03:17:23;;;;;;;3.80;2.03;;;;;;;;;;5044684;28;20143;-74
2024/02/23 03:19:55;;;;;;;6.28;2.25;;;;;;;;;;5042985;28;20064;-73
2024/02/23 03:22:26;;;;;;;5.03;2.70;;;;;;;;;;5044020;28;20049;-74
2024/02/23 03:24:56;;;;;;;6.57;2.83;;;;;;;;;;5044088;28;20049;-74
2024/02/23 03:27:29;;;;;;;3.47;2.50;;;;;;;;;;5043748;28;20056;-73
2024/02/23 03:30:01;;;;;;;4.03;2.33;;;;;;;;;;5043950;28;20053;-73
2024/02/23 03:32:36;;;;;;;4.22;2.60;;;;;;;;;;5043881;28;20403;-73
2024/02/23 03:35:10;;;;;;;5.65;2.60;;;;;;;;;;5043574;28;20076;-74
2024/02/23 03:37:40;;;;;;;4.05;2.72;;;;;;;;;;5043965;28;20049;-74
2024/02/23 03:40:12;;;;;;;4.00;2.65;;;;;;;;;;5043242;28;20045;-73
2024/02/23 03:42:43;;;;;;;6.13;2.72;;;;;;;;;;5043358;28;20040;-73
2024/02/23 03:45:14;;;;;;;4.40;2.78;;;;;;;;;;5043688;28;20049;-73
2024/02/23 03:47:43;;;;;;;6.00;3.03;;;;;;;;;;5043568;28;20450;-75
2024/02/23 03:50:15;;;;;;;3.60;2.67;;;;;;;;;;5043153;28;20053;-73
2024/02/23 03:52:46;;;;;;;8.32;3.10;;;;;;;;;;5041916;28;20525;-73
2024/02/23 03:55:17;;;;;;;4.95;3.38;;;;;;;;;;5043397;28;20060;-73
2024/02/23 03:57:47;;;;;;;5.38;2.83;;;;;;;;;;5043397;28;20037;-74
2024/02/23 04:00:20;;;;;;;5.75;2.95;;;;;;;;;;5043989;28;20068;-73
2024/02/23 04:02:53;;;;;;;5.38;3.15;;;;;;;;;;5042750;28;20071;-73
2024/02/23 04:05:27;;;;;;;6.95;3.15;;;;;;;;;;5042957;28;20072;-74
2024/02/23 04:08:02;;;;;;;3.92;3.35;;;;;;;;;;5042948;28;20484;-73
2024/02/23 04:10:35;;;;;;;7.97;3.60;;;;;;;;;;5042204;28;20120;-73
2024/02/23 04:13:06;;;;;;;3.83;3.10;;;;;;;;;;5042938;28;20048;-73
2024/02/23 04:15:36;;;;;;;5.07;3.28;;;;;;;;;;5042467;28;20053;-73
2024/02/23 04:18:07;;;;;;;5.65;3.35;;;;;;;;;;5043408;28;20049;-74
2024/02/23 04:20:37;;;;;;;7.57;3.10;;;;;;;;;;5043003;28;20075;-73
2024/02/23 04:23:09;;;;;;;5.88;3.10;;;;;;;;;;5042339;28;20480;-73
2024/02/23 04:25:40;;;;;;;5.90;3.33;;;;;;;;;;5042695;28;20051;-73
2024/02/23 04:28:11;;;;;;;6.97;3.30;;;;;;;;;;5043060;28;20045;-73
2024/02/23 04:30:41;;;;;;;5.78;3.47;;;;;;;;;;5042219;28;20427;-74
2024/02/23 04:33:13;;;;;;;6.20;3.05;;;;;;;;;;5042495;28;20044;-73
2024/02/23 04:35:43;;;;;;;6.15;3.67;;;;;;;;;;5042914;28;20491;-74
2024/02/23 04:38:15;;;;;;;5.32;3.33;;;;;;;;;;5042337;28;20049;-73
2024/02/23 04:40:45;;;;;;;7.35;3.63;;;;;;;;;;5042648;28;20443;-73
2024/02/23 04:43:16;;;;;;;3.42;3.13;;;;;;;;;;5042481;28;20052;-73
2024/02/23 04:45:47;;;;;;;8.52;3.47;;;;;;;;;;5042612;28;20059;-73
2024/02/23 04:48:18;;;;;;;9.10;3.35;;;;;;;;;;5042739;28;20060;-73
2024/02/23 04:50:48;;;;;;;7.20;3.42;;;;;;;;;;5042412;28;20037;-75
2024/02/23 04:53:19;;;;;;;9.10;3.42;;;;;;;;;;5042052;28;20423;-73
2024/02/23 04:55:50;;;;;;;5.53;3.28;;;;;;;;;;5042383;28;20056;-74
2024/02/23 04:58:23;;;;;;;11.02;3.08;;;;;;;;;;5042217;28;20037;-73
2024/02/23 05:00:53;;;;;;;7.55;3.60;;;;;;;;;;5041786;28;20048;-73
2024/02/23 05:03:23;;;;;;;6.55;3.53;;;;;;;;;;5040471;28;20049;-74
2024/02/23 05:05:53;;;;;;;3.78;3.38;;;;;;;;;;5041774;28;20106;-74
2024/02/23 05:08:24;;;;;;;9.02;4.05;;;;;;;;;;5040934;28;20060;-73
2024/02/23 05:10:57;;;;;;;6.05;3.28;;;;;;;;;;5042293;28;20049;-73
2024/02/23 05:13:27;;;;;;;8.88;3.40;;;;;;;;;;5041975;28;20091;-73
2024/02/23 05:15:58;;;;;;;6.82;4.07;;;;;;;;;;5042038;28;20450;-73
2024/02/23 05:18:29;;;;;;;6.93;3.50;;;;;;;;;;5041776;28;20041;-72
2024/02/23 05:21:00;;;;;;;4.60;2.92;;;;;;;;;;5042812;28;20057;-73
2024/02/23 05:23:30;;;;;;;5.85;3.35;;;;;;;;;;5042232;28;20045;-73
2024/02/23 05:26:00;;;;;;;5.88;3.25;;;;;;;;;;5040943;28;20052;-73
2024/02/23 05:28:36;;;;;;;11.43;3.35;;;;;;;;;;5042137;28;20056;-74
2024/02/23 05:31:10;;;;;;;8.18;3.45;;;;;;;;;;5041770;28;20060;-73
2024/02/23 05:33:41;;;;;;;4.38;2.95;;;;;;;;;;5042219;28;20053;-73
2024/02/23 05:36:12;;;;;;;3.95;3.13;;;;;;;;;;5041817;28;20057;-74
2024/02/23 05:38:45;;;;;;;7.18;3.13;;;;;;;;;;5041840;28;20064;-73
2024/02/23 05:41:16;;;;;;;4.65;3.28;;;;;;;;;;5041796;28;20067;-73
2024/02/23 05:43:46;;;;;;;6.57;3.83;;;;;;;;;;5042185;28;20045;-73
2024/02/23 05:46:16;;;;;;;6.07;3.50;;;;;;;;;;5042554;28;20045;-74
2024/02/23 05:48:47;;;;;;;4.25;3.20;;;;;;;;;;5041693;28;20041;-73
2024/02/23 05:51:18;;;;;;;6.93;3.40;;;;;;;;;;5043311;28;20040;-73
2024/02/23 05:53:49;;;;;;;3.20;2.80;;;;;;;;;;5045703;28;20053;-73
2024/02/23 05:56:20;;;;;;;4.47;3.15;;;;;;;;;;5045139;28;20060;-73
2024/02/23 05:58:50;;;;;;;4.57;3.17;;;;;;;;;;5045493;28;20045;-74
2024/02/23 06:01:25;;;;;;;4.20;3.47;;;;;;;;;;5045268;28;20063;-77
2024/02/23 06:04:15;;;;;;;4.93;3.35;;;;;;;;;;5045179;28;20049;-74
2024/02/23 06:06:46;;;;;;;6.88;4.07;;;;;;;;;;5045282;28;20052;-73
2024/02/23 06:09:16;;;;;;;8.85;3.90;;;;;;;;;;5045239;28;20522;-73
2024/02/23 06:11:47;;;;;;;4.70;4.15;;;;;;;;;;5045259;28;20049;-74
2024/02/23 06:14:18;;;;;;;7.00;4.28;;;;;;;;;;5044913;28;20386;-74
2024/02/23 06:16:49;;;;;;;6.05;4.15;;;;;;;;;;5043436;28;20543;-73
2024/02/23 06:19:21;;;;;;;4.85;3.92;;;;;;;;;;5044610;28;20048;-72
2024/02/23 06:21:51;;;;;;;8.20;3.67;;;;;;;;;;5044526;28;20053;-74
2024/02/23 06:24:22;;;;;;;6.03;4.15;;;;;;;;;;5045332;28;20495;-74
2024/02/23 06:26:52;;;;;;;7.68;4.13;;;;;;;;;;5044797;28;20041;-73
2024/02/23 06:29:22;;;;;;;8.00;4.20;;;;;;;;;;5044602;28;20064;-74
2024/02/23 06:31:53;;;;;;;5.68;4.18;;;;;;;;;;5044789;28;20500;-73
2024/02/23 06:34:25;;;;;;;6.15;4.30;;;;;;;;;;5044115;28;20060;-74
2024/02/23 06:36:56;;;;;;;6.10;3.75;;;;;;;;;;5043253;28;20045;-73
2024/02/23 06:39:26;;;;;;;9.50;4.38;;;;;;;;;;5044811;28;20064;-73
2024/02/23 06:41:57;;;;;;;5.60;4.40;;;;;;;;;;5044646;28;20403;-73
2024/02/23 06:44:28;;;;;;;7.35;4.03;;;;;;;;;;5044950;28;20056;-73
2024/02/23 06:47:03;;;;;;;6.68;4.03;;;;;;;;;;5044998;28;20056;-73
2024/02/23 06:49:33;;;;;;;5.82;4.28;;;;;;;;;;5043557;28;20056;-73
2024/02/23 06:52:04;;;;;;;11.30;4.03;;;;;;;;;;5044493;28;20040;-74
2024/02/23 06:54:34;;;;;;;11.23;4.25;;;;;;;;;;5043816;28;20049;-74
2024/02/23 06:57:05;;;;;;;6.13;4.43;;;;;;;;;;5044496;28;20057;-74
2024/02/23 06:59:38;;;;;;;6.25;4.40;;;;;;;;;;5044397;28;20052;-73
2024/02/23 07:02:08;;;;;;;8.13;4.13;;;;;;;;;;5043882;28;20053;-73
2024/02/23 07:04:39;;;;;;;7.93;4.85;;;;;;;;;;5044371;28;20049;-74
2024/02/23 07:07:11;;;;;;;7.30;4.85;;;;;;;;;;5044697;28;20423;-73
2024/02/23 07:09:42;;;;;;;8.93;4.88;;;;;;;;;;5044064;28;20557;-74
2024/02/23 07:12:13;;;;;;;9.98;4.60;;;;;;;;;;5044106;28;20526;-74
2024/02/23 07:14:44;;;;;;;10.55;4.43;;;;;;;;;;5044057;28;20052;-73
2024/02/23 07:17:19;;;;;;;10.02;4.50;;;;;;;;;;5044491;28;20052;-74
2024/02/23 07:19:51;;;;;;;7.53;3.85;;;;;;;;;;5043731;28;20637;-73
2024/02/23 07:22:22;;;;;;;7.68;4.50;;;;;;;;;;5044653;28;20060;-74
2024/02/23 07:24:52;;;;;;;11.18;4.53;;;;;;;;;;5044349;28;20041;-74
2024/02/23 07:27:23;;;;;;;6.95;4.72;;;;;;;;;;5044079;28;20049;-73
2024/02/23 07:29:53;;;;;;;9.75;4.43;;;;;;;;;;5043930;28;20052;-73
2024/02/23 07:32:23;;;;;;;7.55;4.07;;;;;;;;;;5044204;28;20045;-73
2024/02/23 07:34:55;;;;;;;5.80;4.07;;;;;;;;;;5043960;28;20504;-74
2024/02/23 07:37:29;;;;;;;7.68;4.40;;;;;;;;;;5043548;28;20060;-73
2024/02/23 07:39:59;;;;;;;6.55;4.50;;;;;;;;;;5043167;28;20052;-73
2024/02/23 07:42:30;;;;;;;9.25;4.13;;;;;;;;;;5042947;28;20045;-73
2024/02/23 07:45:00;;;;;;;8.48;4.60;;;;;;;;;;5043981;28;20045;-73
2024/02/23 07:47:32;;;;;;;7.32;4.20;;;;;;;;;;5043850;28;20534;-73
2024/02/23 07:50:03;;;;;;;8.65;4.57;;;;;;;;;;5044077;28;20064;-74
2024/02/23 07:52:33;;;;;;;5.45;3.90;;;;;;;;;;5043277;28;20060;-73
2024/02/23 07:55:05;;;;;;;5.28;4.13;;;;;;;;;;5044083;28;20053;-74
2024/02/23 07:57:35;;;;;;;8.88;3.83;;;;;;;;;;5043093;28;20049;-79
2024/02/23 08:00:09;;;;;;;5.05;4.10;;;;;;;;;;5043346;28;20056;-73
2024/02/23 08:02:40;;;;;;;5.57;4.20;;;;;;;;;;5043035;28;20056;-73
2024/02/23 08:05:11;;;;;;;5.85;4.00;;;;;;;;;;5043480;28;20495;-74
2024/02/23 08:07:45;;;;;;;4.90;3.78;;;;;;;;;;5043214;28;20415;-73
2024/02/23 08:10:16;;;;;;;6.47;4.35;;;;;;;;;;5042878;28;20049;-74
2024/02/23 08:12:46;;;;;;;6.28;4.45;;;;;;;;;;5042302;28;20067;-74
2024/02/23 08:15:17;;;;;;;6.65;3.88;;;;;;;;;;5042506;28;20063;-74
2024/02/23 08:17:49;;;;;;;6.80;4.05;;;;;;;;;;5043641;28;20049;-73
2024/02/23 08:20:19;;;;;;;8.15;4.22;;;;;;;;;;5043379;28;20045;-74
2024/02/23 08:22:49;;;;;;;5.50;4.32;;;;;;;;;;5042653;28;20049;-74
2024/02/23 08:25:20;;;;;;;7.47;4.38;;;;;;;;;;5042813;28;20053;-73
2024/02/23 08:27:50;;;;;;;6.55;3.88;;;;;;;;;;5042381;28;20392;-74
2024/02/23 08:30:21;;;;;;;5.80;4.07;;;;;;;;;;5042595;28;20525;-73
2024/02/23 08:32:52;;;;;;;6.90;4.25;;;;;;;;;;5043039;28;20041;-73
2024/02/23 08:35:23;;;;;;;5.82;4.50;;;;;;;;;;5042705;28;20052;-74
2024/02/23 08:37:54;;;;;;;7.38;4.18;;;;;;;;;;5042815;28;20055;-73
2024/02/23 08:40:26;;;;;;;7.25;4.50;;;;;;;;;;5042544;28;20507;-73
2024/02/23 08:42:56;;;;;;;5.50;4.32;;;;;;;;;;5042088;28;20045;-73
2024/02/23 08:45:25;;;;;;;7.75;4.47;;;;;;;;;;5042300;28;20049;-73
2024/02/23 08:47:56;;;;;;;9.60;4.72;;;;;;;;;;5042595;28;20356;-73
2024/02/23 08:50:26;;;;;;;7.68;4.57;;;;;;;;;;5042153;28;20059;-74
2024/02/23 08:52:57;;;;;;;5.32;4.10;;;;;;;;;;5041988;28;20056;-74
2024/02/23 08:55:28;;;;;;;7.07;4.53;;;;;;;;;;5042638;28;20048;-72
2024/02/23 08:57:59;;;;;;;5.95;4.03;;;;;;;;;;5043022;28;20629;-73
2024/02/23 09:00:29;;;;;;;6.93;4.50;;;;;;;;;;5042245;28;20060;-74
2024/02/23 09:03:00;;;;;;;9.43;4.63;;;;;;;;;;5041814;28;20045;-76
2024/02/23 09:05:31;;;;;;;8.50;4.63;;;;;;;;;;5041616;28;20053;-73
2024/02/23 09:08:04;;;;;;;10.27;4.82;;;;;;;;;;5042598;28;20052;-74
2024/02/23 09:10:35;;;;;;;7.25;4.57;;;;;;;;;;5025468;28;20056;-74
2024/02/23 09:13:06;;;;;;;11.82;4.75;;;;;;;;;;5042764;28;20052;-73
2024/02/23 09:15:38;;;;;;;8.93;4.50;;;;;;;;;;5042524;28;20045;-73
2024/02/23 09:18:08;;;;;;;5.95;4.63;;;;;;;;;;5041804;28;20060;-73
2024/02/23 09:20:38;;;;;;;7.22;4.85;;;;;;;;;;5041856;28;20055;-74
2024/02/23 09:23:10;;;;;;;9.48;4.53;;;;;;;;;;5041858;28;20049;-75
2024/02/23 09:25:41;;;;;;;7.55;4.53;;;;;;;;;;5045447;28;20049;-74
2024/02/23 09:28:12;;;;;;;8.02;4.88;;;;;;;;;;5046175;28;20045;-77
2024/02/23 09:30:43;;;;;;;6.22;4.53;;;;;;;;;;5046636;28;20051;-75
2024/02/23 09:33:14;;;;;;;10.73;4.97;;;;;;;;;;5044893;28;20053;-74
2024/02/23 09:35:44;;;;;;;9.57;5.15;;;;;;;;;;5045800;28;20067;-74
2024/02/23 09:38:15;;;;;;;8.52;4.70;;;;;;;;;;5045853;28;20052;-73
2024/02/23 09:40:46;;;;;;;11.68;4.85;;;;;;;;;;5046251;28;20052;-74
2024/02/23 09:43:37;;;;;;;7.75;4.70;;;;;;;;;;5045111;28;20037;-74
2024/02/23 09:46:08;;;;;;;15.88;5.38;;;;;;;;;;5045805;28;20052;-73
2024/02/23 09:48:38;;;;;;;8.82;5.18;;;;;;;;;;5045892;28;20053;-73
2024/02/23 09:51:14;;;;;;;8.88;4.63;;;;;;;;;;5045443;28;20056;-74
2024/02/23 09:53:45;;;;;;;9.30;5.15;;;;;;;;;;5045467;28;20041;-74
2024/02/23 09:56:17;;;;;;;7.35;5.32;;;;;;;;;;5044247;28;20052;-79
2024/02/23 09:58:50;;;;;;;8.65;5.60;;;;;;;;;;5046044;28;20045;-74
2024/02/23 10:01:32;;;;;;;10.40;6.20;;;;;;;;;;5045899;28;20393;-77
2024/02/23 10:04:11;;;;;;;14.32;7.57;;;;;;;;;;5045524;28;20045;-74
2024/02/23 10:07:04;;;;;;;12.07;8.73;;;;;;;;;;5028775;28;20056;-75
2024/02/23 10:09:41;;;;;;;12.40;8.10;;;;;;;;;;5045865;28;20064;-74
2024/02/23 10:12:12;;;;;;;11.00;7.30;;;;;;;;;;5044845;28;20080;-85
2024/02/23 10:14:46;;;;;;;8.93;7.10;;;;;;;;;;5045291;28;20049;-73
2024/02/23 10:17:17;;;;;;;11.68;7.38;;;;;;;;;;5045282;28;20060;-80
2024/02/23 10:19:47;;;;;;;16.95;9.63;;;;;;;;;;5044980;28;20850;-73
2024/02/23 10:22:20;;;;;;;27.27;10.52;;;;;;;;;;5045086;28;21129;-73
2024/02/23 10:24:51;;;;;;;11.10;7.18;;;;;;;;;;5044899;28;20056;-74
2024/02/23 10:27:22;;;;;;;15.73;7.35;;;;;;;;;;5045138;28;20056;-78
2024/02/23 10:29:53;;;;;;;13.45;7.45;;;;;;;;;;5045736;28;20511;-73
2024/02/23 10:32:26;;;;;;;12.32;7.75;;;;;;;;;;5045983;28;20085;-74
2024/02/23 10:34:59;;;;;;;13.27;7.65;;;;;;;;;;5045026;28;20052;-74
2024/02/23 10:37:30;;;;;;;12.23;7.53;;;;;;;;;;5043255;28;20057;-73
2024/02/23 10:40:04;;;;;;;12.23;6.43;;;;;;;;;;5046086;28;20045;-73
2024/02/23 10:42:37;;;;;;;10.57;5.70;;;;;;;;;;5046510;28;20053;-73
2024/02/23 10:45:08;;;;;;;19.95;5.45;;;;;;;;;;5045511;28;20056;-74
2024/02/23 10:47:40;;;;;;;10.93;5.10;;;;;;;;;;5044566;28;20602;-78
2024/02/23 10:50:14;;;;;;;18.02;5.30;;;;;;;;;;5045248;28;20048;-73
2024/02/23 10:52:51;;;;;;;20.20;6.20;;;;;;;;;;5044711;28;20155;-73
2024/02/23 10:55:23;;;;;;;13.48;5.82;;;;;;;;;;5044004;28;20045;-74
2024/02/23 10:57:55;;;;;;;14.27;6.47;;;;;;;;;;5042885;28;20053;-72
2024/02/23 11:00:25;;;;;;;19.58;6.00;;;;;;;;;;5043974;28;20045;-74
2024/02/23 11:02:57;;;;;;;12.43;6.90;;;;;;;;;;5044022;28;20053;-83
2024/02/23 11:05:28;;;;;;;18.42;4.22;;;;;;;;;;5044319;28;20801;-73
2024/02/23 11:07:59;;;;;;;10.57;4.85;;;;;;;;;;5043873;28;20037;-73
2024/02/23 11:10:29;;;;;;;18.95;4.95;;;;;;;;;;5043636;28;20041;-74
2024/02/23 11:13:01;;;;;;;13.43;5.03;;;;;;;;;;5043831;28;20032;-73
2024/02/23 11:15:39;;;;;;;10.35;4.57;;;;;;;;;;5044021;28;20064;-74
2024/02/23 11:18:23;;;;;;;11.85;4.38;;;;;;;;;;5043617;28;20049;-73
2024/02/23 11:21:01;;;;;;;7.15;4.40;;;;;;;;;;5042809;28;20052;-74
2024/02/23 11:23:53;;;;;;;11.55;4.65;;;;;;;;;;5044870;28;20523;-73
2024/02/23 11:26:26;;;;;;;10.45;4.03;;;;;;;;;;5043786;28;20056;-73
2024/02/23 11:28:58;;;;;;;15.85;4.57;;;;;;;;;;5043763;28;20103;-74
2024/02/23 11:31:31;;;;;;;11.90;4.38;;;;;;;;;;5043459;28;20631;-74
2024/02/23 11:34:03;;;;;;;13.73;4.43;;;;;;;;;;5042267;28;20048;-74
2024/02/23 11:36:36;;;;;;;11.52;4.13;;;;;;;;;;5041752;28;20057;-74
2024/02/23 11:39:06;;;;;;;12.30;3.15;;;;;;;;;;5040910;28;20064;-73
2024/02/23 11:41:37;;;;;;;12.30;3.75;;;;;;;;;;5041569;28;20045;-74
2024/02/23 11:44:08;;;;;;;11.70;3.38;;;;;;;;;;5041959;28;20056;-75
2024/02/23 11:46:40;;;;;;;7.13;3.08;;;;;;;;;;5040728;28;20071;-73
2024/02/23 11:49:11;;;;;;;13.60;3.30;;;;;;;;;;5040477;28;20044;-76
2024/02/23 11:51:41;;;;;;;15.32;3.30;;;;;;;;;;5042710;28;20049;-77
2024/02/23 11:54:13;;;;;;;8.43;3.20;;;;;;;;;;5043229;28;20488;-74
2024/02/23 11:56:44;;;;;;;8.55;3.20;;;;;;;;;;5043589;28;20052;-73
2024/02/23 11:59:15;;;;;;;5.43;3.03;;;;;;;;;;5043929;28;20052;-74
2024/02/23 12:01:50;;;;;;;6.07;2.70;;;;;;;;;;5043196;28;20068;-73
2024/02/23 12:04:21;;;;;;;8.25;3.05;;;;;;;;;;5043237;28;20044;-73
2024/02/23 12:06:53;;;;;;;8.65;3.08;;;;;;;;;;5042832;28;20059;-75
2024/02/23 12:09:23;;;;;;;5.15;2.97;;;;;;;;;;5043151;28;20053;-73
2024/02/23 12:11:54;;;;;;;5.82;2.80;;;;;;;;;;5041042;28;20045;-73
2024/02/23 12:14:27;;;;;;;8.05;3.70;;;;;;;;;;5043199;28;20041;-74
2024/02/23 12:16:59;;;;;;;8.60;3.10;;;;;;;;;;5043196;28;20051;-73
2024/02/23 12:19:30;;;;;;;7.47;3.30;;;;;;;;;;5042640;28;20059;-73
2024/02/23 12:22:01;;;;;;;3.78;2.60;;;;;;;;;;5042910;28;20956;-74
2024/02/23 12:24:33;;;;;;;8.38;2.80;;;;;;;;;;5042672;28;20055;-73
2024/02/23 12:27:05;;;;;;;5.93;2.97;;;;;;;;;;5042729;28;20049;-74
2024/02/23 12:29:39;;;;;;;6.88;2.75;;;;;;;;;;5042646;28;20049;-72
2024/02/23 12:32:09;;;;;;;6.25;3.10;;;;;;;;;;5041410;28;20763;-73
2024/02/23 12:34:43;;;;;;;4.88;3.15;;;;;;;;;;5042271;28;20053;-72
2024/02/23 12:37:17;;;;;;;11.30;3.08;;;;;;;;;;5042906;28;20049;-73
2024/02/23 12:39:48;;;;;;;7.40;2.88;;;;;;;;;;5042839;28;20056;-73
2024/02/23 12:42:19;;;;;;;4.55;2.72;;;;;;;;;;5042895;28;20045;-74
2024/02/23 12:44:51;;;;;;;6.50;3.38;;;;;;;;;;5042654;28;20044;-73
2024/02/23 12:47:21;;;;;;;6.72;3.05;;;;;;;;;;5042264;28;20045;-74
2024/02/23 12:49:52;;;;;;;8.52;2.72;;;;;;;;;;5042739;28;20440;-74
2024/02/23 12:52:23;;;;;;;6.40;2.47;;;;;;;;;;5041945;28;20055;-73
2024/02/23 12:54:55;;;;;;;6.43;2.55;;;;;;;;;;5041957;28;20048;-73
2024/02/23 12:57:26;;;;;;;6.10;2.25;;;;;;;;;;5042345;28;20511;-73
2024/02/23 12:59:56;;;;;;;7.57;2.35;;;;;;;;;;5041539;28;20041;-73
2024/02/23 13:02:26;;;;;;;5.35;2.50;;;;;;;;;;5041748;28;20045;-73
2024/02/23 13:05:03;;;;;;;5.13;2.08;;;;;;;;;;5041789;28;20044;-73
2024/02/23 13:08:07;;;;;;;4.43;2.40;;;;;;;;;;5042242;28;20809;-73
2024/02/23 13:11:06;;;;;;;3.28;2.00;;;;;;;;;;5041324;28;20064;-74
2024/02/23 13:13:44;;;;;;;4.20;1.92;;;;;;;;;;5042587;28;20056;-74
2024/02/23 13:16:16;;;;;;;4.68;2.20;;;;;;;;;;5042282;28;20059;-84
2024/02/23 13:18:47;;;;;;;5.03;3.08;;;;;;;;;;5041460;28;21159;-75
2024/02/23 13:21:18;;;;;;;3.65;2.17;;;;;;;;;;5041634;28;20045;-75
2024/02/23 13:23:49;;;;;;;6.75;2.58;;;;;;;;;;5041646;28;20056;-75
2024/02/23 13:26:21;;;;;;;5.80;2.97;;;;;;;;;;5043000;28;20045;-73
2024/02/23 13:28:53;;;;;;;7.30;2.60;;;;;;;;;;5042212;28;20053;-76
2024/02/23 13:31:23;;;;;;;5.82;2.33;;;;;;;;;;5041529;28;20614;-74
2024/02/23 13:33:53;;;;;;;3.90;2.33;;;;;;;;;;5041595;28;20056;-74
2024/02/23 13:36:23;;;;;;;3.85;2.22;;;;;;;;;;5040831;28;20041;-74
2024/02/23 13:38:54;;;;;;;4.72;2.55;;;;;;;;;;5041394;28;20056;-74
2024/02/23 13:41:29;;;;;;;5.07;2.67;;;;;;;;;;5040294;28;20053;-74
2024/02/23 13:43:59;;;;;;;3.95;2.53;;;;;;;;;;5041836;28;20045;-73
2024/02/23 13:46:29;;;;;;;7.03;3.00;;;;;;;;;;5042010;28;20049;-73
2024/02/23 13:49:12;;;;;;;9.05;3.10;;;;;;;;;;5041801;28;20053;-74
2024/02/23 13:51:52;;;;;;;9.32;3.00;;;;;;;;;;5040273;28;20060;-74
2024/02/23 13:54:24;;;;;;;4.85;2.92;;;;;;;;;;5024203;28;20061;-74
2024/02/23 13:56:54;;;;;;;6.47;3.13;;;;;;;;;;5041641;28;20049;-74
2024/02/23 13:59:24;;;;;;;7.78;3.28;;;;;;;;;;5041305;28;20056;-74
2024/02/23 14:01:58;;;;;;;3.30;2.83;;;;;;;;;;5040360;28;20526;-74
2024/02/23 14:04:29;;;;;;;6.00;3.28;;;;;;;;;;5041647;28;20037;-73
2024/02/23 14:06:59;;;;;;;6.93;3.33;;;;;;;;;;5041383;28;20060;-73
2024/02/23 14:09:29;;;;;;;6.40;3.40;;;;;;;;;;5041371;28;20053;-73
2024/02/23 14:12:01;;;;;;;7.38;3.72;;;;;;;;;;5042435;28;20041;-75
2024/02/23 14:14:32;;;;;;;8.48;4.05;;;;;;;;;;5045156;28;20044;-74
2024/02/23 14:17:03;;;;;;;7.07;3.42;;;;;;;;;;5045005;28;20048;-73
2024/02/23 14:19:33;;;;;;;5.63;3.50;;;;;;;;;;5044926;28;20060;-74
2024/02/23 14:22:07;;;;;;;8.23;3.50;;;;;;;;;;5045719;28;20411;-73
2024/02/23 14:24:38;;;;;;;6.25;3.70;;;;;;;;;;5045254;28;20049;-76
2024/02/23 14:27:10;;;;;;;6.88;3.75;;;;;;;;;;5044817;28;20072;-75
2024/02/23 14:29:40;;;;;;;10.77;4.40;;;;;;;;;;5044683;28;20508;-74
2024/02/23 14:32:17;;;;;;;6.35;4.55;;;;;;;;;;5042087;28;20531;-85
2024/02/23 14:34:49;;;;;;;5.50;3.78;;;;;;;;;;5043464;28;20057;-75
2024/02/23 14:37:21;;;;;;;6.88;4.35;;;;;;;;;;5045158;28;20508;-75
2024/02/23 14:39:52;;;;;;;5.95;3.92;;;;;;;;;;5045313;28;20056;-74
2024/02/23 14:42:29;;;;;;;5.95;3.67;;;;;;;;;;5044470;28;20389;-80
2024/02/23 14:45:11;;;;;;;7.57;4.63;;;;;;;;;;5043167;28;20562;-75
2024/02/23 14:47:53;;;;;;;4.90;4.15;;;;;;;;;;5028441;28;20053;-74
2024/02/23 14:50:24;;;;;;;6.45;3.88;;;;;;;;;;5044280;28;20052;-74
2024/02/23 14:52:56;;;;;;;8.40;4.65;;;;;;;;;;5044537;28;20055;-75
2024/02/23 14:55:34;;;;;;;4.90;3.28;;;;;;;;;;5044621;28;20393;-75
2024/02/23 14:58:06;;;;;;;5.40;3.60;;;;;;;;;;5043661;28;20079;-75
2024/02/23 15:00:36;;;;;;;5.80;3.78;;;;;;;;;;5044310;28;20400;-75
2024/02/23 15:03:08;;;;;;;8.93;3.70;;;;;;;;;;5043623;28;20503;-75
2024/02/23 15:05:40;;;;;;;6.07;3.20;;;;;;;;;;5044289;28;20053;-75
2024/02/23 15:08:11;;;;;;;3.22;2.80;;;;;;;;;;5043727;28;20068;-77
2024/02/23 15:10:43;;;;;;;6.70;3.10;;;;;;;;;;5044455;28;20056;-75